sensor_id;sensor_type;location;lat;lon;timestamp;pressure;altitude;pressure_sealevel;temperature
69435;BMP180;56625;54.322;18.582;2023-05-23T00:00:22;100911.80;;;12.10
69435;BMP180;56625;54.322;18.582;2023-05-23T00:03:10;100913.00;;;12.10
69435;BMP180;56625;54.322;18.582;2023-05-23T00:05:38;100910.20;;;12.10
69435;BMP180;56625;54.322;18.582;2023-05-23T00:08:07;100907.40;;;12.00
69435;BMP180;56625;54.322;18.582;2023-05-23T00:10:35;100909.00;;;12.00
69435;BMP180;56625;54.322;18.582;2023-05-23T00:13:03;100903.40;;;11.90
69435;BMP180;56625;54.322;18.582;2023-05-23T00:15:33;100902.00;;;11.90
69435;BMP180;56625;54.322;18.582;2023-05-23T00:18:00;100903.80;;;11.90
69435;BMP180;56625;54.322;18.582;2023-05-23T00:20:28;100904.60;;;11.90
69435;BMP180;56625;54.322;18.582;2023-05-23T00:22:57;100899.40;;;11.90
69435;BMP180;56625;54.322;18.582;2023-05-23T00:25:25;100897.60;;;11.90
69435;BMP180;56625;54.322;18.582;2023-05-23T00:28:04;100894.40;;;11.86
69435;BMP180;56625;54.322;18.582;2023-05-23T00:30:33;100893.20;;;11.80
69435;BMP180;56625;54.322;18.582;2023-05-23T00:33:01;100888.20;;;11.80
69435;BMP180;56625;54.322;18.582;2023-05-23T00:35:29;100886.40;;;11.70
69435;BMP180;56625;54.322;18.582;2023-05-23T00:37:57;100884.00;;;11.70
69435;BMP180;56625;54.322;18.582;2023-05-23T00:40:25;100883.40;;;11.60
69435;BMP180;56625;54.322;18.582;2023-05-23T00:42:52;100881.40;;;11.60
69435;BMP180;56625;54.322;18.582;2023-05-23T00:45:20;100877.60;;;11.60
69435;BMP180;56625;54.322;18.582;2023-05-23T00:47:49;100875.80;;;11.60
69435;BMP180;56625;54.322;18.582;2023-05-23T00:50:18;100874.20;;;11.60
69435;BMP180;56625;54.322;18.582;2023-05-23T00:52:48;100870.80;;;11.60
69435;BMP180;56625;54.322;18.582;2023-05-23T00:55:16;100868.00;;;11.60
69435;BMP180;56625;54.322;18.582;2023-05-23T00:57:44;100870.60;;;11.50
69435;BMP180;56625;54.322;18.582;2023-05-23T01:00:13;100869.00;;;11.50
69435;BMP180;56625;54.322;18.582;2023-05-23T01:02:47;100869.40;;;11.40
69435;BMP180;56625;54.322;18.582;2023-05-23T01:05:20;100872.20;;;11.40
69435;BMP180;56625;54.322;18.582;2023-05-23T01:07:50;100869.00;;;11.40
69435;BMP180;56625;54.322;18.582;2023-05-23T01:10:23;100866.60;;;11.40
69435;BMP180;56625;54.322;18.582;2023-05-23T01:18:37;100862.00;;;11.30
69435;BMP180;56625;54.322;18.582;2023-05-23T01:21:20;100859.80;;;11.20
69435;BMP180;56625;54.322;18.582;2023-05-23T01:27:16;100869.20;;;11.10
69435;BMP180;56625;54.322;18.582;2023-05-23T01:29:56;100861.20;;;11.10
69435;BMP180;56625;54.322;18.582;2023-05-23T01:32:26;100860.60;;;11.04
69435;BMP180;56625;54.322;18.582;2023-05-23T01:34:56;100863.40;;;11.00
69435;BMP180;56625;54.322;18.582;2023-05-23T01:37:26;100860.20;;;11.00
69435;BMP180;56625;54.322;18.582;2023-05-23T01:39:56;100858.20;;;10.90
69435;BMP180;56625;54.322;18.582;2023-05-23T01:42:24;100854.40;;;10.80
69435;BMP180;56625;54.322;18.582;2023-05-23T01:44:55;100851.40;;;10.80
69435;BMP180;56625;54.322;18.582;2023-05-23T01:47:26;100853.60;;;10.80
69435;BMP180;56625;54.322;18.582;2023-05-23T01:49:56;100848.60;;;10.70
69435;BMP180;56625;54.322;18.582;2023-05-23T01:52:26;100846.60;;;10.70
69435;BMP180;56625;54.322;18.582;2023-05-23T01:54:55;100849.20;;;10.70
69435;BMP180;56625;54.322;18.582;2023-05-23T01:57:28;100842.20;;;10.70
69435;BMP180;56625;54.322;18.582;2023-05-23T01:59:56;100846.80;;;10.70
69435;BMP180;56625;54.322;18.582;2023-05-23T02:02:24;100844.40;;;10.70
69435;BMP180;56625;54.322;18.582;2023-05-23T02:04:52;100837.40;;;10.70
69435;BMP180;56625;54.322;18.582;2023-05-23T02:07:20;100839.60;;;10.70
69435;BMP180;56625;54.322;18.582;2023-05-23T02:09:50;100843.00;;;10.70
69435;BMP180;56625;54.322;18.582;2023-05-23T02:12:18;100838.60;;;10.60
69435;BMP180;56625;54.322;18.582;2023-05-23T02:14:46;100839.40;;;10.60
69435;BMP180;56625;54.322;18.582;2023-05-23T02:17:14;100833.80;;;10.60
69435;BMP180;56625;54.322;18.582;2023-05-23T02:19:43;100838.60;;;10.60
69435;BMP180;56625;54.322;18.582;2023-05-23T02:22:12;100838.60;;;10.60
69435;BMP180;56625;54.322;18.582;2023-05-23T02:24:40;100839.80;;;10.66
69435;BMP180;56625;54.322;18.582;2023-05-23T02:27:08;100831.20;;;10.66
69435;BMP180;56625;54.322;18.582;2023-05-23T02:29:36;100832.80;;;10.70
69435;BMP180;56625;54.322;18.582;2023-05-23T02:32:05;100836.40;;;10.70
69435;BMP180;56625;54.322;18.582;2023-05-23T02:34:33;100844.80;;;10.70
69435;BMP180;56625;54.322;18.582;2023-05-23T02:37:01;100844.00;;;10.80
69435;BMP180;56625;54.322;18.582;2023-05-23T02:39:28;100841.80;;;10.84
69435;BMP180;56625;54.322;18.582;2023-05-23T02:41:56;100833.60;;;10.80
69435;BMP180;56625;54.322;18.582;2023-05-23T02:44:24;100827.20;;;10.80
69435;BMP180;56625;54.322;18.582;2023-05-23T02:46:52;100827.40;;;10.82
69435;BMP180;56625;54.322;18.582;2023-05-23T02:49:20;100832.00;;;10.80
69435;BMP180;56625;54.322;18.582;2023-05-23T02:51:48;100826.80;;;10.80
69435;BMP180;56625;54.322;18.582;2023-05-23T02:54:16;100822.80;;;10.80
69435;BMP180;56625;54.322;18.582;2023-05-23T02:56:45;100823.60;;;10.80
69435;BMP180;56625;54.322;18.582;2023-05-23T02:59:13;100821.00;;;10.88
69435;BMP180;56625;54.322;18.582;2023-05-23T03:01:41;100820.60;;;10.90
69435;BMP180;56625;54.322;18.582;2023-05-23T03:04:09;100812.40;;;10.84
69435;BMP180;56625;54.322;18.582;2023-05-23T03:06:37;100810.40;;;10.90
69435;BMP180;56625;54.322;18.582;2023-05-23T03:09:05;100808.60;;;10.90
69435;BMP180;56625;54.322;18.582;2023-05-23T03:11:32;100807.60;;;10.94
69435;BMP180;56625;54.322;18.582;2023-05-23T03:14:00;100806.20;;;11.10
69435;BMP180;56625;54.322;18.582;2023-05-23T03:16:28;100794.80;;;11.28
69435;BMP180;56625;54.322;18.582;2023-05-23T03:18:56;100801.20;;;11.40
69435;BMP180;56625;54.322;18.582;2023-05-23T03:21:25;100795.00;;;11.60
69435;BMP180;56625;54.322;18.582;2023-05-23T03:23:53;100791.80;;;11.70
69435;BMP180;56625;54.322;18.582;2023-05-23T03:26:21;100794.00;;;11.88
69435;BMP180;56625;54.322;18.582;2023-05-23T03:28:49;100793.80;;;12.04
69435;BMP180;56625;54.322;18.582;2023-05-23T03:31:18;100790.00;;;12.28
69435;BMP180;56625;54.322;18.582;2023-05-23T03:33:46;100789.00;;;12.60
69435;BMP180;56625;54.322;18.582;2023-05-23T03:36:14;100780.20;;;13.00
69435;BMP180;56625;54.322;18.582;2023-05-23T03:38:42;100775.60;;;13.38
69435;BMP180;56625;54.322;18.582;2023-05-23T03:41:09;100775.40;;;13.66
69435;BMP180;56625;54.322;18.582;2023-05-23T03:43:38;100762.40;;;13.84
69435;BMP180;56625;54.322;18.582;2023-05-23T03:46:05;100766.40;;;14.00
69435;BMP180;56625;54.322;18.582;2023-05-23T03:48:33;100757.00;;;14.10
69435;BMP180;56625;54.322;18.582;2023-05-23T03:51:02;100753.80;;;14.20
69435;BMP180;56625;54.322;18.582;2023-05-23T03:53:29;100753.60;;;14.40
69435;BMP180;56625;54.322;18.582;2023-05-23T03:55:57;100755.40;;;14.58
69435;BMP180;56625;54.322;18.582;2023-05-23T03:58:25;100744.60;;;14.70
69435;BMP180;56625;54.322;18.582;2023-05-23T04:00:54;100757.60;;;14.90
69435;BMP180;56625;54.322;18.582;2023-05-23T04:03:21;100751.80;;;15.06
69435;BMP180;56625;54.322;18.582;2023-05-23T04:05:50;100745.80;;;15.30
69435;BMP180;56625;54.322;18.582;2023-05-23T04:08:18;100747.40;;;15.60
69435;BMP180;56625;54.322;18.582;2023-05-23T04:10:49;100747.00;;;15.80
69435;BMP180;56625;54.322;18.582;2023-05-23T04:13:17;100737.00;;;15.90
69435;BMP180;56625;54.322;18.582;2023-05-23T04:15:45;100734.40;;;16.00
69435;BMP180;56625;54.322;18.582;2023-05-23T04:18:14;100736.60;;;16.20
69435;BMP180;56625;54.322;18.582;2023-05-23T04:20:45;100731.00;;;16.30
69435;BMP180;56625;54.322;18.582;2023-05-23T04:23:13;100732.00;;;16.32
69435;BMP180;56625;54.322;18.582;2023-05-23T04:25:41;100730.80;;;16.30
69435;BMP180;56625;54.322;18.582;2023-05-23T04:28:11;100732.80;;;16.30
69435;BMP180;56625;54.322;18.582;2023-05-23T04:30:39;100729.20;;;16.30
69435;BMP180;56625;54.322;18.582;2023-05-23T04:33:07;100727.20;;;16.40
69435;BMP180;56625;54.322;18.582;2023-05-23T04:35:36;100727.20;;;16.48
69435;BMP180;56625;54.322;18.582;2023-05-23T04:38:07;100722.80;;;16.50
69435;BMP180;56625;54.322;18.582;2023-05-23T04:40:36;100726.40;;;16.60
69435;BMP180;56625;54.322;18.582;2023-05-23T04:43:04;100723.20;;;16.72
69435;BMP180;56625;54.322;18.582;2023-05-23T04:45:32;100721.80;;;16.80
69435;BMP180;56625;54.322;18.582;2023-05-23T04:48:00;100723.20;;;16.98
69435;BMP180;56625;54.322;18.582;2023-05-23T04:50:28;100716.80;;;17.10
69435;BMP180;56625;54.322;18.582;2023-05-23T04:53:00;100720.60;;;17.30
69435;BMP180;56625;54.322;18.582;2023-05-23T04:55:28;100723.40;;;17.50
69435;BMP180;56625;54.322;18.582;2023-05-23T04:57:56;100722.60;;;17.80
69435;BMP180;56625;54.322;18.582;2023-05-23T05:00:24;100724.00;;;18.10
69435;BMP180;56625;54.322;18.582;2023-05-23T05:02:52;100722.60;;;18.36
69435;BMP180;56625;54.322;18.582;2023-05-23T05:05:20;100716.00;;;19.00
69435;BMP180;56625;54.322;18.582;2023-05-23T05:07:48;100715.20;;;19.52
69435;BMP180;56625;54.322;18.582;2023-05-23T05:10:16;100712.80;;;19.94
69435;BMP180;56625;54.322;18.582;2023-05-23T05:12:46;100712.40;;;20.30
69435;BMP180;56625;54.322;18.582;2023-05-23T05:15:17;100706.80;;;20.40
69435;BMP180;56625;54.322;18.582;2023-05-23T05:17:45;100707.40;;;20.50
69435;BMP180;56625;54.322;18.582;2023-05-23T05:20:16;100707.40;;;20.70
69435;BMP180;56625;54.322;18.582;2023-05-23T05:22:44;100701.00;;;20.80
69435;BMP180;56625;54.322;18.582;2023-05-23T05:25:12;100705.60;;;20.90
69435;BMP180;56625;54.322;18.582;2023-05-23T05:27:40;100707.40;;;20.60
69435;BMP180;56625;54.322;18.582;2023-05-23T05:30:10;100705.80;;;20.40
69435;BMP180;56625;54.322;18.582;2023-05-23T05:32:38;100706.80;;;20.40
69435;BMP180;56625;54.322;18.582;2023-05-23T05:35:07;100701.60;;;20.34
69435;BMP180;56625;54.322;18.582;2023-05-23T05:37:35;100701.40;;;20.40
69435;BMP180;56625;54.322;18.582;2023-05-23T05:40:04;100699.20;;;20.40
69435;BMP180;56625;54.322;18.582;2023-05-23T05:42:34;100692.60;;;20.40
69435;BMP180;56625;54.322;18.582;2023-05-23T05:45:02;100693.80;;;20.70
69435;BMP180;56625;54.322;18.582;2023-05-23T05:47:30;100695.80;;;21.00
69435;BMP180;56625;54.322;18.582;2023-05-23T05:49:58;100690.00;;;21.10
69435;BMP180;56625;54.322;18.582;2023-05-23T05:52:25;100691.00;;;21.20
69435;BMP180;56625;54.322;18.582;2023-05-23T05:54:53;100691.40;;;21.28
69435;BMP180;56625;54.322;18.582;2023-05-23T05:57:22;100688.80;;;21.30
69435;BMP180;56625;54.322;18.582;2023-05-23T05:59:50;100693.00;;;21.40
69435;BMP180;56625;54.322;18.582;2023-05-23T06:02:19;100691.20;;;21.38
69435;BMP180;56625;54.322;18.582;2023-05-23T06:04:47;100693.00;;;21.40
69435;BMP180;56625;54.322;18.582;2023-05-23T06:07:15;100691.80;;;21.50
69435;BMP180;56625;54.322;18.582;2023-05-23T06:09:43;100691.80;;;21.60
69435;BMP180;56625;54.322;18.582;2023-05-23T06:12:11;100691.40;;;21.50
69435;BMP180;56625;54.322;18.582;2023-05-23T06:14:39;100694.60;;;21.50
69435;BMP180;56625;54.322;18.582;2023-05-23T06:17:07;100687.60;;;21.42
69435;BMP180;56625;54.322;18.582;2023-05-23T06:19:35;100691.20;;;21.40
69435;BMP180;56625;54.322;18.582;2023-05-23T06:22:05;100689.00;;;21.30
69435;BMP180;56625;54.322;18.582;2023-05-23T06:24:33;100690.40;;;21.30
69435;BMP180;56625;54.322;18.582;2023-05-23T06:27:01;100686.40;;;21.40
69435;BMP180;56625;54.322;18.582;2023-05-23T06:29:29;100691.60;;;21.40
69435;BMP180;56625;54.322;18.582;2023-05-23T06:31:57;100693.60;;;21.50
69435;BMP180;56625;54.322;18.582;2023-05-23T06:34:27;100690.60;;;21.50
69435;BMP180;56625;54.322;18.582;2023-05-23T06:36:55;100695.60;;;21.44
69435;BMP180;56625;54.322;18.582;2023-05-23T06:39:24;100692.00;;;21.56
69435;BMP180;56625;54.322;18.582;2023-05-23T06:41:53;100687.80;;;21.70
69435;BMP180;56625;54.322;18.582;2023-05-23T06:44:21;100689.00;;;21.70
69435;BMP180;56625;54.322;18.582;2023-05-23T06:46:49;100689.00;;;21.80
69435;BMP180;56625;54.322;18.582;2023-05-23T06:49:17;100684.80;;;21.70
69435;BMP180;56625;54.322;18.582;2023-05-23T06:51:45;100684.00;;;21.70
69435;BMP180;56625;54.322;18.582;2023-05-23T06:54:13;100682.00;;;21.70
69435;BMP180;56625;54.322;18.582;2023-05-23T06:56:42;100685.60;;;21.80
69435;BMP180;56625;54.322;18.582;2023-05-23T06:59:11;100678.80;;;22.00
69435;BMP180;56625;54.322;18.582;2023-05-23T07:01:40;100680.20;;;22.20
69435;BMP180;56625;54.322;18.582;2023-05-23T07:04:08;100674.40;;;22.40
69435;BMP180;56625;54.322;18.582;2023-05-23T07:06:37;100673.60;;;22.50
69435;BMP180;56625;54.322;18.582;2023-05-23T07:09:06;100670.20;;;22.42
69435;BMP180;56625;54.322;18.582;2023-05-23T07:11:34;100671.20;;;22.60
69435;BMP180;56625;54.322;18.582;2023-05-23T07:14:04;100669.00;;;22.80
69435;BMP180;56625;54.322;18.582;2023-05-23T07:16:35;100669.00;;;22.80
69435;BMP180;56625;54.322;18.582;2023-05-23T07:19:03;100661.80;;;22.70
69435;BMP180;56625;54.322;18.582;2023-05-23T07:21:33;100661.60;;;22.94
69435;BMP180;56625;54.322;18.582;2023-05-23T07:24:00;100665.40;;;23.14
69435;BMP180;56625;54.322;18.582;2023-05-23T07:26:28;100663.80;;;23.20
69435;BMP180;56625;54.322;18.582;2023-05-23T07:28:57;100656.80;;;23.10
69435;BMP180;56625;54.322;18.582;2023-05-23T07:31:25;100655.00;;;23.10
69435;BMP180;56625;54.322;18.582;2023-05-23T07:33:53;100651.40;;;23.10
69435;BMP180;56625;54.322;18.582;2023-05-23T07:36:23;100654.20;;;23.36
69435;BMP180;56625;54.322;18.582;2023-05-23T07:38:51;100650.20;;;23.60
69435;BMP180;56625;54.322;18.582;2023-05-23T07:41:20;100652.80;;;23.50
69435;BMP180;56625;54.322;18.582;2023-05-23T07:43:48;100650.80;;;23.40
69435;BMP180;56625;54.322;18.582;2023-05-23T07:46:16;100650.60;;;23.30
69435;BMP180;56625;54.322;18.582;2023-05-23T07:48:44;100650.20;;;23.36
69435;BMP180;56625;54.322;18.582;2023-05-23T07:51:12;100647.40;;;23.20
69435;BMP180;56625;54.322;18.582;2023-05-23T07:53:40;100648.40;;;23.26
69435;BMP180;56625;54.322;18.582;2023-05-23T07:56:08;100647.80;;;23.46
69435;BMP180;56625;54.322;18.582;2023-05-23T07:58:39;100648.60;;;23.78
69435;BMP180;56625;54.322;18.582;2023-05-23T08:01:09;100640.00;;;24.00
69435;BMP180;56625;54.322;18.582;2023-05-23T08:03:37;100644.20;;;24.00
69435;BMP180;56625;54.322;18.582;2023-05-23T08:06:05;100641.80;;;24.12
69435;BMP180;56625;54.322;18.582;2023-05-23T08:08:35;100637.60;;;24.10
69435;BMP180;56625;54.322;18.582;2023-05-23T08:11:03;100644.40;;;24.20
69435;BMP180;56625;54.322;18.582;2023-05-23T08:13:31;100649.40;;;24.30
69435;BMP180;56625;54.322;18.582;2023-05-23T08:16:00;100640.20;;;24.40
69435;BMP180;56625;54.322;18.582;2023-05-23T08:18:29;100640.20;;;24.42
69435;BMP180;56625;54.322;18.582;2023-05-23T08:20:58;100639.80;;;24.10
69435;BMP180;56625;54.322;18.582;2023-05-23T08:23:26;100640.60;;;23.90
69435;BMP180;56625;54.322;18.582;2023-05-23T08:25:55;100640.80;;;23.90
69435;BMP180;56625;54.322;18.582;2023-05-23T08:28:24;100644.40;;;24.10
69435;BMP180;56625;54.322;18.582;2023-05-23T08:30:52;100639.80;;;24.36
69435;BMP180;56625;54.322;18.582;2023-05-23T08:33:20;100640.20;;;24.50
69435;BMP180;56625;54.322;18.582;2023-05-23T08:35:48;100638.20;;;24.40
69435;BMP180;56625;54.322;18.582;2023-05-23T08:38:17;100642.00;;;24.24
69435;BMP180;56625;54.322;18.582;2023-05-23T08:40:50;100636.80;;;24.00
69435;BMP180;56625;54.322;18.582;2023-05-23T08:43:21;100645.20;;;23.80
69435;BMP180;56625;54.322;18.582;2023-05-23T08:45:50;100646.40;;;23.80
69435;BMP180;56625;54.322;18.582;2023-05-23T08:48:19;100654.20;;;23.60
69435;BMP180;56625;54.322;18.582;2023-05-23T08:50:52;100649.00;;;23.50
69435;BMP180;56625;54.322;18.582;2023-05-23T08:53:24;100655.00;;;23.50
69435;BMP180;56625;54.322;18.582;2023-05-23T08:55:54;100656.40;;;23.50
69435;BMP180;56625;54.322;18.582;2023-05-23T08:58:29;100656.20;;;23.54
69435;BMP180;56625;54.322;18.582;2023-05-23T09:00:59;100659.00;;;23.50
69435;BMP180;56625;54.322;18.582;2023-05-23T09:03:27;100658.20;;;23.40
69435;BMP180;56625;54.322;18.582;2023-05-23T09:05:57;100663.20;;;23.40
69435;BMP180;56625;54.322;18.582;2023-05-23T09:08:25;100648.20;;;23.60
69435;BMP180;56625;54.322;18.582;2023-05-23T09:10:55;100652.80;;;23.90
69435;BMP180;56625;54.322;18.582;2023-05-23T09:13:24;100649.80;;;24.00
69435;BMP180;56625;54.322;18.582;2023-05-23T09:18:41;100653.60;;;24.00
69435;BMP180;56625;54.322;18.582;2023-05-23T09:21:11;100647.80;;;24.10
69435;BMP180;56625;54.322;18.582;2023-05-23T09:23:40;100646.00;;;24.30
69435;BMP180;56625;54.322;18.582;2023-05-23T09:26:11;100646.80;;;24.50
69435;BMP180;56625;54.322;18.582;2023-05-23T09:28:42;100649.80;;;24.60
69435;BMP180;56625;54.322;18.582;2023-05-23T09:31:11;100642.80;;;24.60
69435;BMP180;56625;54.322;18.582;2023-05-23T09:33:45;100643.80;;;24.64
69435;BMP180;56625;54.322;18.582;2023-05-23T09:36:17;100640.00;;;25.00
69435;BMP180;56625;54.322;18.582;2023-05-23T09:38:46;100632.80;;;25.26
69435;BMP180;56625;54.322;18.582;2023-05-23T09:41:19;100633.40;;;25.42
69435;BMP180;56625;54.322;18.582;2023-05-23T09:43:53;100635.60;;;25.38
69435;BMP180;56625;54.322;18.582;2023-05-23T09:46:21;100637.40;;;25.10
69435;BMP180;56625;54.322;18.582;2023-05-23T09:48:50;100635.40;;;25.10
69435;BMP180;56625;54.322;18.582;2023-05-23T09:51:21;100642.20;;;25.20
69435;BMP180;56625;54.322;18.582;2023-05-23T09:53:50;100634.20;;;25.40
69435;BMP180;56625;54.322;18.582;2023-05-23T09:56:19;100635.20;;;25.48
69435;BMP180;56625;54.322;18.582;2023-05-23T09:58:49;100638.40;;;25.30
69435;BMP180;56625;54.322;18.582;2023-05-23T10:01:18;100636.80;;;25.26
69435;BMP180;56625;54.322;18.582;2023-05-23T10:03:51;100630.20;;;25.40
69435;BMP180;56625;54.322;18.582;2023-05-23T10:06:31;100639.20;;;25.62
69435;BMP180;56625;54.322;18.582;2023-05-23T10:09:04;100634.60;;;25.88
69435;BMP180;56625;54.322;18.582;2023-05-23T10:14:29;100634.00;;;25.92
69435;BMP180;56625;54.322;18.582;2023-05-23T10:17:09;100629.20;;;25.80
69435;BMP180;56625;54.322;18.582;2023-05-23T10:19:59;100622.00;;;25.90
69435;BMP180;56625;54.322;18.582;2023-05-23T10:22:30;100628.00;;;26.00
69435;BMP180;56625;54.322;18.582;2023-05-23T10:25:01;100627.80;;;26.04
69435;BMP180;56625;54.322;18.582;2023-05-23T10:27:30;100623.00;;;26.10
69435;BMP180;56625;54.322;18.582;2023-05-23T10:29:59;100624.60;;;26.18
69435;BMP180;56625;54.322;18.582;2023-05-23T10:32:29;100628.20;;;26.10
69435;BMP180;56625;54.322;18.582;2023-05-23T10:35:37;100627.00;;;26.10
69435;BMP180;56625;54.322;18.582;2023-05-23T10:41:15;100626.40;;;26.10
69435;BMP180;56625;54.322;18.582;2023-05-23T10:46:53;100619.60;;;26.46
69435;BMP180;56625;54.322;18.582;2023-05-23T10:49:45;100618.60;;;26.50
69435;BMP180;56625;54.322;18.582;2023-05-23T10:52:16;100617.60;;;26.66
69435;BMP180;56625;54.322;18.582;2023-05-23T10:54:52;100621.80;;;26.74
69435;BMP180;56625;54.322;18.582;2023-05-23T10:57:24;100622.00;;;26.72
69435;BMP180;56625;54.322;18.582;2023-05-23T10:59:59;100619.40;;;26.58
69435;BMP180;56625;54.322;18.582;2023-05-23T11:02:28;100627.60;;;26.20
69435;BMP180;56625;54.322;18.582;2023-05-23T11:05:21;100621.20;;;26.30
69435;BMP180;56625;54.322;18.582;2023-05-23T11:08:14;100623.00;;;26.20
69435;BMP180;56625;54.322;18.582;2023-05-23T11:11:08;100622.20;;;26.10
69435;BMP180;56625;54.322;18.582;2023-05-23T11:13:58;100620.60;;;26.10
69435;BMP180;56625;54.322;18.582;2023-05-23T11:16:44;100624.00;;;26.10
69435;BMP180;56625;54.322;18.582;2023-05-23T11:19:20;100625.20;;;26.10
69435;BMP180;56625;54.322;18.582;2023-05-23T11:21:59;100621.60;;;25.90
69435;BMP180;56625;54.322;18.582;2023-05-23T11:24:48;100620.40;;;25.60
69435;BMP180;56625;54.322;18.582;2023-05-23T11:27:38;100619.00;;;25.40
69435;BMP180;56625;54.322;18.582;2023-05-23T11:30:14;100616.20;;;25.20
69435;BMP180;56625;54.322;18.582;2023-05-23T11:32:53;100619.80;;;25.08
69435;BMP180;56625;54.322;18.582;2023-05-23T11:35:23;100619.60;;;25.10
69435;BMP180;56625;54.322;18.582;2023-05-23T11:37:56;100614.80;;;25.10
69435;BMP180;56625;54.322;18.582;2023-05-23T11:40:33;100618.80;;;25.00
69435;BMP180;56625;54.322;18.582;2023-05-23T11:43:04;100614.40;;;25.00
69435;BMP180;56625;54.322;18.582;2023-05-23T11:45:37;100617.20;;;25.20
69435;BMP180;56625;54.322;18.582;2023-05-23T11:48:13;100617.20;;;25.50
69435;BMP180;56625;54.322;18.582;2023-05-23T11:50:49;100609.80;;;25.78
69435;BMP180;56625;54.322;18.582;2023-05-23T11:53:20;100615.00;;;26.10
69435;BMP180;56625;54.322;18.582;2023-05-23T11:55:56;100617.60;;;25.80
69435;BMP180;56625;54.322;18.582;2023-05-23T11:58:34;100616.60;;;26.00
69435;BMP180;56625;54.322;18.582;2023-05-23T12:01:08;100614.00;;;26.14
69435;BMP180;56625;54.322;18.582;2023-05-23T12:03:47;100618.40;;;26.00
69435;BMP180;56625;54.322;18.582;2023-05-23T12:06:21;100607.40;;;26.20
69435;BMP180;56625;54.322;18.582;2023-05-23T12:08:51;100610.40;;;26.30
69435;BMP180;56625;54.322;18.582;2023-05-23T12:11:20;100614.00;;;26.14
69435;BMP180;56625;54.322;18.582;2023-05-23T12:13:51;100613.80;;;26.28
69435;BMP180;56625;54.322;18.582;2023-05-23T12:16:19;100610.60;;;26.10
69435;BMP180;56625;54.322;18.582;2023-05-23T12:18:48;100595.00;;;25.90
69435;BMP180;56625;54.322;18.582;2023-05-23T12:21:16;100610.80;;;25.80
69435;BMP180;56625;54.322;18.582;2023-05-23T12:23:44;100606.00;;;25.74
69435;BMP180;56625;54.322;18.582;2023-05-23T12:26:12;100600.20;;;25.74
69435;BMP180;56625;54.322;18.582;2023-05-23T12:28:43;100594.60;;;25.70
69435;BMP180;56625;54.322;18.582;2023-05-23T12:31:17;100599.60;;;25.88
69435;BMP180;56625;54.322;18.582;2023-05-23T12:33:47;100598.80;;;25.90
69435;BMP180;56625;54.322;18.582;2023-05-23T12:36:25;100600.40;;;25.60
69435;BMP180;56625;54.322;18.582;2023-05-23T12:39:04;100598.20;;;25.54
69435;BMP180;56625;54.322;18.582;2023-05-23T12:41:36;100593.40;;;25.68
69435;BMP180;56625;54.322;18.582;2023-05-23T12:44:03;100595.80;;;25.52
69435;BMP180;56625;54.322;18.582;2023-05-23T12:46:31;100588.60;;;25.56
69435;BMP180;56625;54.322;18.582;2023-05-23T12:48:59;100595.00;;;25.30
69435;BMP180;56625;54.322;18.582;2023-05-23T12:51:27;100585.60;;;25.40
69435;BMP180;56625;54.322;18.582;2023-05-23T12:53:57;100586.40;;;25.50
69435;BMP180;56625;54.322;18.582;2023-05-23T12:56:25;100584.20;;;25.46
69435;BMP180;56625;54.322;18.582;2023-05-23T12:58:53;100594.00;;;25.40
69435;BMP180;56625;54.322;18.582;2023-05-23T13:01:22;100595.40;;;25.44
69435;BMP180;56625;54.322;18.582;2023-05-23T13:03:50;100598.40;;;25.42
69435;BMP180;56625;54.322;18.582;2023-05-23T13:06:18;100590.80;;;25.32
69435;BMP180;56625;54.322;18.582;2023-05-23T13:08:46;100593.20;;;25.20
69435;BMP180;56625;54.322;18.582;2023-05-23T13:11:16;100582.20;;;25.20
69435;BMP180;56625;54.322;18.582;2023-05-23T13:13:45;100582.00;;;25.00
69435;BMP180;56625;54.322;18.582;2023-05-23T13:16:13;100584.60;;;24.90
69435;BMP180;56625;54.322;18.582;2023-05-23T13:18:42;100584.60;;;24.90
69435;BMP180;56625;54.322;18.582;2023-05-23T13:21:10;100585.80;;;24.94
69435;BMP180;56625;54.322;18.582;2023-05-23T13:23:38;100585.40;;;25.00
69435;BMP180;56625;54.322;18.582;2023-05-23T13:26:06;100585.00;;;24.92
69435;BMP180;56625;54.322;18.582;2023-05-23T13:28:34;100590.40;;;25.00
69435;BMP180;56625;54.322;18.582;2023-05-23T13:31:02;100581.80;;;25.10
69435;BMP180;56625;54.322;18.582;2023-05-23T13:33:31;100573.80;;;25.20
69435;BMP180;56625;54.322;18.582;2023-05-23T13:36:01;100571.20;;;25.50
69435;BMP180;56625;54.322;18.582;2023-05-23T13:38:29;100567.40;;;25.74
69435;BMP180;56625;54.322;18.582;2023-05-23T13:40:58;100567.40;;;25.80
69435;BMP180;56625;54.322;18.582;2023-05-23T13:43:26;100566.60;;;25.90
69435;BMP180;56625;54.322;18.582;2023-05-23T13:45:54;100560.60;;;26.10
69435;BMP180;56625;54.322;18.582;2023-05-23T13:48:23;100563.20;;;26.10
69435;BMP180;56625;54.322;18.582;2023-05-23T13:50:59;100554.40;;;26.26
69435;BMP180;56625;54.322;18.582;2023-05-23T13:53:28;100557.20;;;26.20
69435;BMP180;56625;54.322;18.582;2023-05-23T13:55:56;100561.40;;;26.20
69435;BMP180;56625;54.322;18.582;2023-05-23T13:58:24;100553.80;;;26.26
69435;BMP180;56625;54.322;18.582;2023-05-23T14:00:52;100554.80;;;26.14
69435;BMP180;56625;54.322;18.582;2023-05-23T14:03:21;100559.00;;;26.10
69435;BMP180;56625;54.322;18.582;2023-05-23T14:05:49;100555.40;;;26.00
69435;BMP180;56625;54.322;18.582;2023-05-23T14:08:17;100553.20;;;25.90
69435;BMP180;56625;54.322;18.582;2023-05-23T14:10:45;100551.60;;;25.90
69435;BMP180;56625;54.322;18.582;2023-05-23T14:13:13;100549.00;;;26.00
69435;BMP180;56625;54.322;18.582;2023-05-23T14:15:41;100549.40;;;26.00
69435;BMP180;56625;54.322;18.582;2023-05-23T14:18:10;100547.20;;;25.82
69435;BMP180;56625;54.322;18.582;2023-05-23T14:20:38;100556.60;;;25.80